createdAt,value
2019-03-12T00:00:46.020Z,69.78
2019-03-12T00:01:54.083Z,69.84
2019-03-12T00:03:02.062Z,69.43
2019-03-12T00:04:09.994Z,69.51
2019-03-12T00:05:18.100Z,69.55
2019-03-12T00:06:26.094Z,69.25
2019-03-12T00:07:33.935Z,69.18
2019-03-12T00:08:42.173Z,69.17
2019-03-12T00:09:50.048Z,68.95
2019-03-12T00:10:58.175Z,68.96
2019-03-12T00:12:06.267Z,68.99
2019-03-12T00:13:14.145Z,69.07
2019-03-12T00:14:21.946Z,68.99
2019-03-12T00:15:29.932Z,68.97
2019-03-12T00:16:38.030Z,69.08
2019-03-12T00:17:46.134Z,68.96
2019-03-12T00:18:54.220Z,68.98
2019-03-12T00:20:02.063Z,68.94
2019-03-12T00:21:09.885Z,68.80
2019-03-12T00:22:17.896Z,68.89
2019-03-12T00:23:25.898Z,68.89
2019-03-12T00:24:34.115Z,68.96
2019-03-12T00:25:42.717Z,68.87
2019-03-12T00:26:50.653Z,68.92
2019-03-12T00:27:58.709Z,68.86
2019-03-12T00:29:06.959Z,68.82
2019-03-12T00:30:15.137Z,68.68
2019-03-12T00:31:23.392Z,68.69
2019-03-12T00:32:31.827Z,68.84
2019-03-12T00:33:40.215Z,68.78
2019-03-12T00:34:48.282Z,68.82
2019-03-12T00:35:56.226Z,68.65
2019-03-12T00:37:04.270Z,68.65
2019-03-12T00:38:12.113Z,68.40
2019-03-12T00:39:20.053Z,68.43
2019-03-12T00:40:28.067Z,68.36
2019-03-12T00:41:36.165Z,68.37
2019-03-12T00:42:44.182Z,68.27
2019-03-12T00:43:52.251Z,68.20
2019-03-12T00:45:00.025Z,68.19
2019-03-12T00:46:08.139Z,68.11
2019-03-12T00:47:16.129Z,68.17
2019-03-12T00:48:24.026Z,68.15
2019-03-12T00:49:32.070Z,68.07
2019-03-12T00:50:39.970Z,68.11
2019-03-12T00:51:47.992Z,68.11
2019-03-12T00:52:55.848Z,68.06
2019-03-12T00:54:03.912Z,67.83
2019-03-12T00:55:12.316Z,67.80
2019-03-12T00:56:20.144Z,67.80
2019-03-12T00:57:28.152Z,67.69
2019-03-12T00:58:36.327Z,67.78
2019-03-12T00:59:44.429Z,67.78
2019-03-12T01:00:52.884Z,67.82
2019-03-12T01:02:00.983Z,67.54
2019-03-12T01:03:08.839Z,67.54
2019-03-12T01:04:17.002Z,67.73
2019-03-12T01:05:24.958Z,67.84
2019-03-12T01:06:32.823Z,67.76
2019-03-12T01:07:41.086Z,67.59
2019-03-12T01:08:49.397Z,67.52
2019-03-12T01:09:57.303Z,67.41
2019-03-12T01:11:05.619Z,67.48
2019-03-12T01:12:13.550Z,67.37
2019-03-12T01:13:21.428Z,67.41
2019-03-12T01:14:29.436Z,67.31
2019-03-12T01:15:37.286Z,67.37
2019-03-12T01:16:45.187Z,67.56
2019-03-12T01:17:53.459Z,67.56
2019-03-12T01:19:01.695Z,67.77
2019-03-12T01:20:15.492Z,67.73
2019-03-12T01:21:23.478Z,67.89
2019-03-12T01:22:31.312Z,67.88
2019-03-12T01:23:39.475Z,67.94
2019-03-12T01:24:47.568Z,68.07
2019-03-12T01:25:55.552Z,68.03
2019-03-12T01:27:03.756Z,68.03
2019-03-12T01:28:11.964Z,68.17
2019-03-12T01:29:20.250Z,68.32
2019-03-12T01:30:28.484Z,68.47
2019-03-12T01:31:36.752Z,68.47
2019-03-12T01:32:44.590Z,68.56
2019-03-12T01:33:52.547Z,68.49
2019-03-12T01:35:00.751Z,68.45
2019-03-12T01:36:08.914Z,68.50
2019-03-12T01:37:16.860Z,68.39
2019-03-12T01:38:24.761Z,68.42
2019-03-12T01:39:32.525Z,68.55
2019-03-12T01:40:40.424Z,68.44
2019-03-12T01:41:48.495Z,68.58
2019-03-12T01:42:56.504Z,68.56
2019-03-12T01:44:04.808Z,68.38
2019-03-12T01:45:15.157Z,68.20
2019-03-12T01:46:23.094Z,68.23
2019-03-12T01:47:31.139Z,68.15
2019-03-12T01:48:39.040Z,68.20
2019-03-12T01:49:47.249Z,68.24
2019-03-12T01:50:55.027Z,68.28
2019-03-12T01:52:03.315Z,68.21
2019-03-12T01:53:11.517Z,68.06
2019-03-12T01:54:19.375Z,68.01
2019-03-12T01:55:27.127Z,68.10
2019-03-12T01:56:34.945Z,68.07
2019-03-12T01:57:43.146Z,68.29
2019-03-12T01:58:51.602Z,68.21
2019-03-12T01:59:59.685Z,68.21
2019-03-12T02:01:07.686Z,68.32
2019-03-12T02:02:15.762Z,68.37
2019-03-12T02:03:23.976Z,68.31
2019-03-12T02:04:31.967Z,68.40
2019-03-12T02:05:40.082Z,68.32
2019-03-12T02:06:48.055Z,68.22
2019-03-12T02:07:56.233Z,68.31
2019-03-12T02:09:05.027Z,68.41
2019-03-12T02:10:15.092Z,68.27
2019-03-12T02:11:23.095Z,68.32
2019-03-12T02:12:31.217Z,68.26
2019-03-12T02:13:39.065Z,68.25
2019-03-12T02:14:47.144Z,68.20
2019-03-12T02:15:55.488Z,68.09
2019-03-12T02:17:03.498Z,67.99
2019-03-12T02:18:11.904Z,67.98
2019-03-12T02:19:19.832Z,67.98
2019-03-12T02:20:27.990Z,67.92
2019-03-12T02:21:35.986Z,67.84
2019-03-12T02:22:44.012Z,67.85
2019-03-12T02:23:52.887Z,68.03
2019-03-12T02:25:00.989Z,67.88
2019-03-12T02:26:09.090Z,67.68
2019-03-12T02:27:17.090Z,67.53
2019-03-12T02:28:24.881Z,67.55
2019-03-12T02:29:32.915Z,67.53
2019-03-12T02:30:41.051Z,67.36
2019-03-12T02:31:48.919Z,67.40
2019-03-12T02:32:57.055Z,67.43
2019-03-12T02:34:05.140Z,67.13
2019-03-12T02:35:13.122Z,67.07
2019-03-12T02:36:21.122Z,67.04
2019-03-12T02:37:29.133Z,66.99
2019-03-12T02:38:37.048Z,67.03
2019-03-12T02:39:44.941Z,66.80
2019-03-12T02:40:53.074Z,66.43
2019-03-12T02:42:01.175Z,66.45
2019-03-12T02:43:09.118Z,66.32
2019-03-12T02:44:17.138Z,66.46
2019-03-12T02:45:25.498Z,66.58
2019-03-12T02:46:33.506Z,66.41
2019-03-12T02:47:41.382Z,66.38
2019-03-12T02:48:49.541Z,66.36
2019-03-12T02:49:57.812Z,66.37
2019-03-12T02:51:05.828Z,66.31
2019-03-12T02:52:14.039Z,66.10
2019-03-12T02:53:21.903Z,65.94
2019-03-12T02:54:29.815Z,66.08
2019-03-12T02:55:37.525Z,65.97
2019-03-12T02:56:45.525Z,65.98
2019-03-12T02:57:53.980Z,65.77
2019-03-12T02:59:02.467Z,65.71
2019-03-12T03:00:18.499Z,65.88
2019-03-12T03:01:26.359Z,65.93
2019-03-12T03:02:34.248Z,65.61
2019-03-12T03:03:42.199Z,65.81
2019-03-12T03:04:54.053Z,65.79
2019-03-12T03:06:04.250Z,65.84
2019-03-12T03:07:14.324Z,65.70
2019-03-12T03:08:24.035Z,65.80
2019-03-12T03:09:32.050Z,66.02
2019-03-12T03:10:40.110Z,65.89
2019-03-12T03:11:50.879Z,66.03
2019-03-12T03:12:57.986Z,66.05
2019-03-12T03:14:05.952Z,66.24
2019-03-12T03:15:32.089Z,66.24
2019-03-12T03:16:39.968Z,66.17
2019-03-12T03:17:47.885Z,66.13
2019-03-12T03:18:56.458Z,66.03
2019-03-12T03:20:05.783Z,65.96
2019-03-12T03:21:13.816Z,65.79
2019-03-12T03:22:21.867Z,65.60
2019-03-12T03:23:29.940Z,65.51
2019-03-12T03:24:38.131Z,65.41
2019-03-12T03:25:46.291Z,65.54
2019-03-12T03:26:54.210Z,65.71
2019-03-12T03:28:02.379Z,65.65
2019-03-12T03:29:10.428Z,65.59
2019-03-12T03:30:26.270Z,65.58
2019-03-12T03:31:34.456Z,65.78
2019-03-12T03:32:42.546Z,65.78
2019-03-12T03:33:50.556Z,65.69
2019-03-12T03:34:58.658Z,65.62
2019-03-12T03:36:06.753Z,65.50
2019-03-12T03:37:14.934Z,65.46
2019-03-12T03:38:22.908Z,65.39
2019-03-12T03:39:30.961Z,65.33
2019-03-12T03:40:39.065Z,65.17
2019-03-12T03:41:47.249Z,65.11
2019-03-12T03:42:55.241Z,65.12
2019-03-12T03:44:03.622Z,65.12
2019-03-12T03:45:12.221Z,65.11
2019-03-12T03:46:20.303Z,65.05
2019-03-12T03:47:28.308Z,65.16
2019-03-12T03:48:36.892Z,65.11
2019-03-12T03:49:44.913Z,65.10
2019-03-12T03:50:52.988Z,64.85
2019-03-12T03:52:01.740Z,64.73
2019-03-12T03:53:09.835Z,64.85
2019-03-12T03:54:17.805Z,64.80
2019-03-12T03:55:25.759Z,64.85
2019-03-12T03:56:34.017Z,64.73
2019-03-12T03:57:42.123Z,64.78
2019-03-12T03:58:50.082Z,65.02
2019-03-12T03:59:59.644Z,64.81
2019-03-12T04:01:07.751Z,64.69
2019-03-12T04:02:15.846Z,64.62
2019-03-12T04:03:24.180Z,64.57
2019-03-12T04:04:32.129Z,64.53
2019-03-12T04:05:40.222Z,64.48
2019-03-12T04:06:48.123Z,64.35
2019-03-12T04:07:56.066Z,64.29
2019-03-12T04:09:04.931Z,64.12
2019-03-12T04:10:17.051Z,64.39
2019-03-12T04:11:25.215Z,64.34
2019-03-12T04:12:33.418Z,64.37
2019-03-12T04:13:41.461Z,64.23
2019-03-12T04:14:49.327Z,64.24
2019-03-12T04:15:57.701Z,64.11
2019-03-12T04:17:05.794Z,63.99
2019-03-12T04:18:13.997Z,63.85
2019-03-12T04:19:21.977Z,63.60
2019-03-12T04:20:30.036Z,63.40
2019-03-12T04:21:38.275Z,63.35
2019-03-12T04:22:46.567Z,63.34
2019-03-12T04:23:54.577Z,63.42
2019-03-12T04:25:02.887Z,63.36
2019-03-12T04:26:12.211Z,63.40
2019-03-12T04:27:20.289Z,63.30
2019-03-12T04:28:28.207Z,63.22
2019-03-12T04:29:36.152Z,63.30
2019-03-12T04:30:44.086Z,63.45
2019-03-12T04:31:52.095Z,63.12
2019-03-12T04:33:00.063Z,62.96
2019-03-12T04:34:13.092Z,63.05
2019-03-12T04:35:25.935Z,63.20
2019-03-12T04:36:34.244Z,63.23
2019-03-12T04:37:42.271Z,63.35
2019-03-12T04:38:50.594Z,63.37
2019-03-12T04:39:58.468Z,63.43
2019-03-12T04:41:06.984Z,63.64
2019-03-12T04:42:14.936Z,63.69
2019-03-12T04:43:23.023Z,63.73
2019-03-12T04:44:31.079Z,63.79
2019-03-12T04:45:39.059Z,63.73
2019-03-12T04:46:47.067Z,63.81
2019-03-12T04:47:55.375Z,63.96
2019-03-12T04:49:03.672Z,64.05
2019-03-12T04:50:11.941Z,64.00
2019-03-12T04:51:20.156Z,63.97
2019-03-12T04:52:28.037Z,64.02
2019-03-12T04:53:37.612Z,64.14
2019-03-12T04:54:45.880Z,64.12
2019-03-12T04:55:53.840Z,64.05
2019-03-12T04:57:02.300Z,64.13
2019-03-12T04:58:10.396Z,64.15
2019-03-12T04:59:18.793Z,64.06
2019-03-12T05:00:27.411Z,64.22
2019-03-12T05:01:36.817Z,64.19
2019-03-12T05:02:44.730Z,64.32
2019-03-12T05:03:52.637Z,64.33
2019-03-12T05:05:00.836Z,64.47
2019-03-12T05:06:08.919Z,64.30
2019-03-12T05:07:17.131Z,64.44
2019-03-12T05:08:25.177Z,64.44
2019-03-12T05:09:33.223Z,64.39
2019-03-12T05:10:41.488Z,64.30
2019-03-12T05:11:49.442Z,64.37
2019-03-12T05:12:57.330Z,64.32
2019-03-12T05:14:29.540Z,64.17
2019-03-12T05:15:37.430Z,64.15
2019-03-12T05:16:45.485Z,64.30
2019-03-12T05:17:53.326Z,64.29
2019-03-12T05:19:01.213Z,64.30
2019-03-12T05:20:13.145Z,64.22
2019-03-12T05:21:21.013Z,64.21
2019-03-12T05:22:28.923Z,64.31
2019-03-12T05:23:38.393Z,64.32
2019-03-12T05:24:46.303Z,64.10
2019-03-12T05:25:54.130Z,64.17
2019-03-12T05:27:02.106Z,64.16
2019-03-12T05:28:10.471Z,64.36
2019-03-12T05:29:18.690Z,64.23
2019-03-12T05:30:26.692Z,64.33
2019-03-12T05:31:34.960Z,64.26
2019-03-12T05:32:43.008Z,64.41
2019-03-12T05:33:50.975Z,64.38
2019-03-12T05:34:59.053Z,64.48
2019-03-12T05:36:07.593Z,64.63
2019-03-12T05:37:15.629Z,64.57
2019-03-12T05:38:23.892Z,64.56
2019-03-12T05:39:32.030Z,64.52
2019-03-12T05:40:40.602Z,64.55
2019-03-12T05:41:48.924Z,64.74
2019-03-12T05:42:56.907Z,64.69
2019-03-12T05:44:04.894Z,64.74
2019-03-12T05:45:20.358Z,64.76
2019-03-12T05:46:28.722Z,64.57
2019-03-12T05:47:36.760Z,64.57
2019-03-12T05:48:44.798Z,64.68
2019-03-12T05:49:52.938Z,64.87
2019-03-12T05:51:01.068Z,65.11
2019-03-12T05:52:09.042Z,65.05
2019-03-12T05:53:17.060Z,65.23
2019-03-12T05:54:25.545Z,65.22
2019-03-12T05:55:33.819Z,65.07
2019-03-12T05:56:42.055Z,65.02
2019-03-12T05:57:50.326Z,65.09
2019-03-12T05:58:58.202Z,64.98
2019-03-12T06:00:20.688Z,64.91
2019-03-12T06:01:28.788Z,64.90
2019-03-12T06:02:36.883Z,65.04
2019-03-12T06:03:44.774Z,65.26
2019-03-12T06:04:52.762Z,65.26
2019-03-12T06:06:00.965Z,65.33
2019-03-12T06:07:09.599Z,65.42
2019-03-12T06:08:17.865Z,65.43
2019-03-12T06:09:30.473Z,65.08
2019-03-12T06:10:35.917Z,64.96
2019-03-12T06:11:44.065Z,65.33
2019-03-12T06:12:52.031Z,65.48
2019-03-12T06:13:59.999Z,65.41
2019-03-12T06:15:18.561Z,65.33
2019-03-12T06:16:26.744Z,64.95
2019-03-12T06:17:34.823Z,64.93
2019-03-12T06:18:42.780Z,64.78
2019-03-12T06:19:51.028Z,64.61
2019-03-12T06:20:59.226Z,64.71
2019-03-12T06:22:07.252Z,64.89
2019-03-12T06:23:15.462Z,64.95
2019-03-12T06:24:23.607Z,65.08
2019-03-12T06:25:32.025Z,64.89
2019-03-12T06:26:41.041Z,64.95
2019-03-12T06:27:49.445Z,64.82
2019-03-12T06:28:57.493Z,65.03
2019-03-12T06:30:14.197Z,65.12
2019-03-12T06:31:40.654Z,65.60
2019-03-12T06:32:56.129Z,65.26
2019-03-12T06:34:06.175Z,65.21
2019-03-12T06:35:16.224Z,64.77
2019-03-12T06:36:33.016Z,64.87
2019-03-12T06:37:49.824Z,64.58
2019-03-12T06:38:59.546Z,64.71
2019-03-12T06:40:11.052Z,63.62
2019-03-12T06:41:26.489Z,63.52
2019-03-12T06:42:36.342Z,63.08
2019-03-12T06:43:46.077Z,62.13
2019-03-12T06:45:07.940Z,61.90
2019-03-12T06:46:23.775Z,62.09
2019-03-12T06:47:36.192Z,62.39
2019-03-12T06:48:45.938Z,61.76
2019-03-12T06:49:58.330Z,61.73
2019-03-12T06:51:08.109Z,61.64
2019-03-12T06:52:36.107Z,61.14
2019-03-12T06:53:48.864Z,59.73
2019-03-12T06:55:01.397Z,59.12
2019-03-12T06:56:29.174Z,59.05
2019-03-12T06:57:44.354Z,59.77
2019-03-12T06:58:53.933Z,60.01
2019-03-12T07:00:06.586Z,59.90
2019-03-12T07:01:17.247Z,59.59
2019-03-12T07:02:36.173Z,58.96
2019-03-12T07:03:54.933Z,58.81
2019-03-12T07:05:06.065Z,57.98
2019-03-12T07:06:23.205Z,56.83
2019-03-12T07:07:41.592Z,56.67
2019-03-12T07:08:54.294Z,57.17
2019-03-12T07:10:17.080Z,56.31
2019-03-12T07:11:39.201Z,56.34
2019-03-12T07:13:02.378Z,55.45
2019-03-12T07:14:14.567Z,54.26
2019-03-12T07:15:33.092Z,54.71
2019-03-12T07:16:48.586Z,55.10
2019-03-12T07:18:04.059Z,55.38
2019-03-12T07:19:17.011Z,54.98
2019-03-12T07:20:26.907Z,54.97
2019-03-12T07:21:36.615Z,55.63
2019-03-12T07:22:44.567Z,55.00
2019-03-12T07:24:00.279Z,54.12
2019-03-12T07:25:19.437Z,53.57
2019-03-12T07:26:32.430Z,54.45
2019-03-12T07:27:50.905Z,54.05
2019-03-12T07:29:03.160Z,54.37
2019-03-12T07:30:17.698Z,53.84
2019-03-12T07:31:27.876Z,54.13
2019-03-12T07:32:56.057Z,54.34
2019-03-12T07:34:06.947Z,53.83
2019-03-12T07:35:22.756Z,53.76
2019-03-12T07:36:48.113Z,54.26
2019-03-12T07:38:13.053Z,54.08
2019-03-12T07:39:28.565Z,53.42
2019-03-12T07:40:55.018Z,53.18
2019-03-12T07:42:14.060Z,53.29
2019-03-12T07:43:32.896Z,53.42
2019-03-12T07:44:42.526Z,53.43
2019-03-12T07:45:55.100Z,53.21
2019-03-12T07:47:04.472Z,53.51
2019-03-12T07:48:25.878Z,52.91
2019-03-12T07:49:38.052Z,53.25
2019-03-12T07:51:04.903Z,53.11
2019-03-12T07:52:33.029Z,53.57
2019-03-12T07:53:58.967Z,53.55
2019-03-12T07:54:59.770Z,52.87
2019-03-12T07:56:12.695Z,52.92
2019-03-12T07:57:32.771Z,52.88
2019-03-12T07:58:58.721Z,53.45
2019-03-12T08:00:12.944Z,52.78
2019-03-12T08:01:25.455Z,53.38
2019-03-12T08:02:37.886Z,52.98
2019-03-12T08:03:59.907Z,53.09
2019-03-12T08:05:28.279Z,52.82
2019-03-12T08:06:38.284Z,52.92
2019-03-12T08:07:47.913Z,53.56
2019-03-12T08:08:57.997Z,53.61
2019-03-12T08:10:13.524Z,53.07
2019-03-12T08:11:26.263Z,53.14
2019-03-12T08:12:36.064Z,53.13
2019-03-12T08:13:45.607Z,52.50
2019-03-12T08:14:58.301Z,52.09
2019-03-12T08:16:08.870Z,51.67
2019-03-12T08:17:17.089Z,52.37
2019-03-12T08:18:30.786Z,52.20
2019-03-12T08:19:43.381Z,52.89
2019-03-12T08:20:55.986Z,52.89
2019-03-12T08:22:14.521Z,52.84
2019-03-12T08:23:30.315Z,53.35
2019-03-12T08:24:40.174Z,53.58
2019-03-12T08:26:05.124Z,53.90
2019-03-12T08:27:14.587Z,52.61
2019-03-12T08:28:24.195Z,52.87
2019-03-12T08:29:33.867Z,52.37
2019-03-12T08:30:49.307Z,51.78
2019-03-12T08:31:59.163Z,51.66
2019-03-12T08:33:14.916Z,52.35
2019-03-12T08:34:30.440Z,53.21
2019-03-12T08:35:42.904Z,53.50
2019-03-12T08:36:53.436Z,52.26
2019-03-12T08:38:06.115Z,51.95
2019-03-12T08:39:15.963Z,51.77
2019-03-12T08:40:31.663Z,52.02
2019-03-12T08:41:53.732Z,51.86
2019-03-12T08:43:15.648Z,52.03
2019-03-12T08:44:31.586Z,51.48
2019-03-12T08:45:45.425Z,51.53
2019-03-12T08:46:50.794Z,51.50
2019-03-12T08:48:04.644Z,51.55
2019-03-12T08:49:17.285Z,50.35
2019-03-12T08:50:25.182Z,49.45
2019-03-12T08:51:51.002Z,49.33
2019-03-12T08:52:58.832Z,49.61
2019-03-12T08:54:11.503Z,49.22
2019-03-12T08:55:26.062Z,49.03
2019-03-12T08:56:35.676Z,49.34
2019-03-12T08:57:57.719Z,49.86
2019-03-12T08:59:16.033Z,50.08
2019-03-12T09:00:34.927Z,49.65
2019-03-12T09:01:47.413Z,49.53
2019-03-12T09:02:54.284Z,49.82
2019-03-12T09:04:09.729Z,49.70
2019-03-12T09:05:19.170Z,49.61
2019-03-12T09:06:41.147Z,49.56
2019-03-12T09:08:07.285Z,49.83
2019-03-12T09:09:33.201Z,49.62
2019-03-12T09:10:58.092Z,48.52
2019-03-12T09:12:11.692Z,48.45
2019-03-12T09:13:21.256Z,48.95
2019-03-12T09:14:30.985Z,49.60
2019-03-12T09:15:52.910Z,49.22
2019-03-12T09:17:03.932Z,49.71
2019-03-12T09:18:11.831Z,49.25
2019-03-12T09:19:27.461Z,49.11
2019-03-12T09:20:55.611Z,49.29
2019-03-12T09:22:06.361Z,48.52
2019-03-12T09:23:14.573Z,47.21
2019-03-12T09:24:40.029Z,47.00
2019-03-12T09:25:50.670Z,47.34
2019-03-12T09:27:07.116Z,48.39
2019-03-12T09:28:22.717Z,49.14
2019-03-12T09:29:32.192Z,47.92
2019-03-12T09:30:58.240Z,47.66
2019-03-12T09:32:08.895Z,48.83
2019-03-12T09:33:35.008Z,48.41
2019-03-12T09:34:45.073Z,47.91
2019-03-12T09:36:03.910Z,47.86
2019-03-12T09:37:18.215Z,47.67
2019-03-12T09:38:30.529Z,48.01
2019-03-12T09:39:42.941Z,47.42
2019-03-12T09:41:01.729Z,47.38
2019-03-12T09:42:19.412Z,46.01
2019-03-12T09:43:29.918Z,46.49
2019-03-12T09:44:45.653Z,47.40
2019-03-12T09:46:07.002Z,46.69
2019-03-12T09:47:19.440Z,47.00
2019-03-12T09:48:35.450Z,46.26
2019-03-12T09:49:45.053Z,46.29
2019-03-12T09:50:54.749Z,46.47
2019-03-12T09:52:07.368Z,46.97
2019-03-12T09:53:25.631Z,46.11
2019-03-12T09:54:42.434Z,46.33
2019-03-12T09:55:52.188Z,46.66
2019-03-12T09:57:10.956Z,46.97
2019-03-12T09:58:20.572Z,47.66
2019-03-12T09:59:38.892Z,47.30
2019-03-12T10:00:48.407Z,46.29
2019-03-12T10:02:13.986Z,45.53
2019-03-12T10:03:33.172Z,45.86
2019-03-12T10:04:51.722Z,46.70
2019-03-12T10:06:10.154Z,45.67
2019-03-12T10:07:35.355Z,46.75
2019-03-12T10:08:45.699Z,46.80
2019-03-12T10:10:08.413Z,45.84
2019-03-12T10:11:18.021Z,43.99
2019-03-12T10:12:27.915Z,45.08
2019-03-12T10:13:43.261Z,45.85
2019-03-12T10:14:52.766Z,45.15
2019-03-12T10:16:02.758Z,45.14
2019-03-12T10:17:26.110Z,44.52
2019-03-12T10:18:38.612Z,43.91
2019-03-12T10:19:57.351Z,41.91
2019-03-12T10:21:21.740Z,41.09
2019-03-12T10:22:33.983Z,40.03
2019-03-12T10:23:48.139Z,40.06
2019-03-12T10:25:02.035Z,40.45
2019-03-12T10:26:21.067Z,39.57
2019-03-12T10:27:35.098Z,40.05
2019-03-12T10:28:51.797Z,39.85
2019-03-12T10:30:07.775Z,37.85
2019-03-12T10:31:33.899Z,37.77
2019-03-12T10:32:43.630Z,37.35
2019-03-12T10:33:56.212Z,39.20
2019-03-12T10:35:07.750Z,38.84
2019-03-12T10:36:27.138Z,39.98
2019-03-12T10:37:45.775Z,40.50
2019-03-12T10:40:07.174Z,39.72
2019-03-12T10:41:16.887Z,40.04
2019-03-12T10:42:33.465Z,38.15
2019-03-12T10:43:42.397Z,37.48
2019-03-12T10:44:56.486Z,37.60
2019-03-12T10:46:08.859Z,37.33
2019-03-12T10:47:24.595Z,36.74
2019-03-12T10:48:32.902Z,36.33
2019-03-12T10:49:41.100Z,36.72
2019-03-12T10:50:49.300Z,36.60
2019-03-12T10:51:57.466Z,36.66
2019-03-12T10:53:05.726Z,36.24
2019-03-12T10:54:13.988Z,36.21
2019-03-12T10:55:22.120Z,36.25
2019-03-12T10:56:30.294Z,37.38
2019-03-12T10:57:38.524Z,36.28
2019-03-12T10:58:46.624Z,37.00
2019-03-12T10:59:54.769Z,37.26
2019-03-12T11:01:02.839Z,37.23
2019-03-12T11:02:10.918Z,36.81
2019-03-12T11:03:18.909Z,36.11
2019-03-12T11:04:26.935Z,36.51
2019-03-12T11:05:45.508Z,35.50
2019-03-12T11:06:44.926Z,35.49
2019-03-12T11:07:53.314Z,35.65
2019-03-12T11:09:01.714Z,35.99
2019-03-12T11:10:16.199Z,35.94
2019-03-12T11:11:24.654Z,35.74
2019-03-12T11:12:33.100Z,35.49
2019-03-12T11:13:41.476Z,35.30
2019-03-12T11:14:49.808Z,35.41
2019-03-12T11:15:58.003Z,35.15
2019-03-12T11:17:06.034Z,35.33
2019-03-12T11:18:14.357Z,35.90
2019-03-12T11:19:22.999Z,36.25
2019-03-12T11:20:31.033Z,36.46
2019-03-12T11:21:38.905Z,36.36
2019-03-12T11:22:47.173Z,36.48
2019-03-12T11:23:55.276Z,35.45
2019-03-12T11:25:03.374Z,36.10
2019-03-12T11:26:11.512Z,35.58
2019-03-12T11:27:19.644Z,35.82
2019-03-12T11:28:27.665Z,34.81
2019-03-12T11:29:35.872Z,35.64
2019-03-12T11:30:44.061Z,35.03
2019-03-12T11:31:52.190Z,34.08
2019-03-12T11:33:00.677Z,34.11
2019-03-12T11:34:08.983Z,33.91
2019-03-12T11:35:17.179Z,33.63
2019-03-12T11:36:26.235Z,32.95
2019-03-12T11:37:34.568Z,33.10
2019-03-12T11:38:42.597Z,33.33
2019-03-12T11:39:50.830Z,33.72
2019-03-12T11:40:59.022Z,34.26
2019-03-12T11:42:07.144Z,34.51
2019-03-12T11:43:15.129Z,34.82
2019-03-12T11:44:23.713Z,35.51
2019-03-12T11:45:36.683Z,36.24
2019-03-12T11:46:45.181Z,36.58
2019-03-12T11:47:51.811Z,36.82
2019-03-12T11:49:00.300Z,37.38
2019-03-12T11:50:15.741Z,37.30
2019-03-12T11:51:24.607Z,37.53
2019-03-12T11:52:33.112Z,37.59
2019-03-12T11:53:41.204Z,38.32
2019-03-12T11:54:49.473Z,38.55
2019-03-12T11:55:57.873Z,37.81
2019-03-12T11:57:06.001Z,37.92
2019-03-12T11:58:14.364Z,37.46
2019-03-12T11:59:22.734Z,36.26
2019-03-12T12:00:35.509Z,36.17
2019-03-12T12:01:43.776Z,35.23
2019-03-12T12:03:00.035Z,34.77
2019-03-12T12:04:01.930Z,35.04
2019-03-12T12:05:10.638Z,34.94
2019-03-12T12:06:18.671Z,34.66
2019-03-12T12:07:27.013Z,35.09
2019-03-12T12:08:35.014Z,35.36
2019-03-12T12:09:43.089Z,35.60
2019-03-12T12:10:51.564Z,35.88
2019-03-12T12:11:59.957Z,36.04
2019-03-12T12:13:08.227Z,36.38
2019-03-12T12:14:16.522Z,36.79
2019-03-12T12:15:25.560Z,37.24
2019-03-12T12:16:34.080Z,37.77
2019-03-12T12:17:42.262Z,38.01
2019-03-12T12:18:50.569Z,38.46
2019-03-12T12:19:58.662Z,38.71
2019-03-12T12:21:06.817Z,38.64
2019-03-12T12:22:14.844Z,38.72
2019-03-12T12:23:23.047Z,38.07
2019-03-12T12:24:31.105Z,36.44
2019-03-12T12:25:39.645Z,36.36
2019-03-12T12:26:47.637Z,36.94
2019-03-12T12:27:56.256Z,37.04
2019-03-12T12:29:04.570Z,36.04
2019-03-12T12:30:24.990Z,36.38
2019-03-12T12:31:33.239Z,36.29
2019-03-12T12:32:41.162Z,35.88
2019-03-12T12:33:49.538Z,35.33
2019-03-12T12:34:57.532Z,35.75
2019-03-12T12:36:05.722Z,35.79
2019-03-12T12:37:13.944Z,35.19
2019-03-12T12:38:22.433Z,34.73
2019-03-12T12:39:30.895Z,34.79
2019-03-12T12:40:38.729Z,34.57
2019-03-12T12:41:46.642Z,34.51
2019-03-12T12:42:54.428Z,34.40
2019-03-12T12:44:02.503Z,34.63
2019-03-12T12:45:21.157Z,34.92
2019-03-12T12:46:29.519Z,35.02
2019-03-12T12:47:37.513Z,34.66
2019-03-12T12:48:46.056Z,34.43
2019-03-12T12:49:54.150Z,34.31
2019-03-12T12:51:03.666Z,34.26
2019-03-12T12:52:11.900Z,34.40
2019-03-12T12:53:20.224Z,35.38
2019-03-12T12:54:28.544Z,35.33
2019-03-12T12:55:36.494Z,35.27
2019-03-12T12:56:44.573Z,34.88
2019-03-12T12:57:52.694Z,35.05
2019-03-12T12:59:02.320Z,34.81
2019-03-12T13:00:24.223Z,34.48
2019-03-12T13:01:32.983Z,34.45
2019-03-12T13:02:41.057Z,34.86
2019-03-12T13:03:49.230Z,35.54
2019-03-12T13:04:57.330Z,35.45
2019-03-12T13:06:05.372Z,35.34
2019-03-12T13:07:13.338Z,35.26
2019-03-12T13:08:21.313Z,35.17
2019-03-12T13:09:29.794Z,34.62
2019-03-12T13:10:37.915Z,34.30
2019-03-12T13:11:45.950Z,34.02
2019-03-12T13:12:54.366Z,33.79
2019-03-12T13:14:02.233Z,33.40
2019-03-12T13:15:12.461Z,32.26
2019-03-12T13:16:24.939Z,31.66
2019-03-12T13:17:30.301Z,31.50
2019-03-12T13:18:38.691Z,31.39
2019-03-12T13:19:46.976Z,30.76
2019-03-12T13:20:55.244Z,30.47
2019-03-12T13:22:03.594Z,30.32
2019-03-12T13:23:11.766Z,30.78
2019-03-12T13:24:19.853Z,30.89
2019-03-12T13:25:28.210Z,30.96
2019-03-12T13:26:36.504Z,31.03
2019-03-12T13:27:44.617Z,31.27
2019-03-12T13:28:52.634Z,31.19
2019-03-12T13:30:00.596Z,31.04
2019-03-12T13:31:08.932Z,31.19
2019-03-12T13:32:17.026Z,31.34
2019-03-12T13:33:25.173Z,31.52
2019-03-12T13:34:33.415Z,31.60
2019-03-12T13:35:41.471Z,31.49
2019-03-12T13:36:49.574Z,31.78
2019-03-12T13:37:57.626Z,31.99
2019-03-12T13:39:07.508Z,32.64
2019-03-12T13:40:27.205Z,33.44
2019-03-12T13:41:35.620Z,33.65
2019-03-12T13:42:43.684Z,33.61
2019-03-12T13:43:51.717Z,33.03
2019-03-12T13:45:00.726Z,32.25
2019-03-12T13:46:09.505Z,31.30
2019-03-12T13:47:17.789Z,31.82
2019-03-12T13:48:26.657Z,31.74
2019-03-12T13:49:34.783Z,31.69
2019-03-12T13:50:42.936Z,30.89
2019-03-12T13:51:50.891Z,30.52
2019-03-12T13:52:58.786Z,30.47
2019-03-12T13:54:09.573Z,30.10
2019-03-12T13:55:17.388Z,30.16
2019-03-12T13:56:25.406Z,30.02
2019-03-12T13:57:33.769Z,30.41
2019-03-12T13:58:41.765Z,30.72
2019-03-12T13:59:49.678Z,30.65
2019-03-12T14:00:57.817Z,30.57
2019-03-12T14:02:05.890Z,30.45
2019-03-12T14:03:13.839Z,30.41
2019-03-12T14:04:21.938Z,30.37
2019-03-12T14:05:30.154Z,29.97
2019-03-12T14:06:38.295Z,29.45
2019-03-12T14:07:46.443Z,29.72
2019-03-12T14:08:54.635Z,29.90
2019-03-12T14:10:02.803Z,30.13
2019-03-12T14:11:10.761Z,29.94
2019-03-12T14:12:18.884Z,29.40
2019-03-12T14:13:26.889Z,29.73
2019-03-12T14:14:35.144Z,30.19
2019-03-12T14:15:43.127Z,29.86
2019-03-12T14:16:51.012Z,29.83
2019-03-12T14:17:59.439Z,30.03
2019-03-12T14:19:07.700Z,30.25
2019-03-12T14:20:59.744Z,30.24
2019-03-12T14:22:08.164Z,30.44
2019-03-12T14:23:35.193Z,30.15
2019-03-12T14:24:43.271Z,30.12
2019-03-12T14:25:51.863Z,30.25
2019-03-12T14:26:59.983Z,29.99
2019-03-12T14:28:08.310Z,29.99
2019-03-12T14:29:16.335Z,29.85
2019-03-12T14:30:24.431Z,30.01
2019-03-12T14:31:32.695Z,29.22
2019-03-12T14:32:41.598Z,28.99
2019-03-12T14:33:49.648Z,28.81
2019-03-12T14:34:57.741Z,29.19
2019-03-12T14:36:06.205Z,29.19
2019-03-12T14:37:14.494Z,29.26
2019-03-12T14:38:22.700Z,29.28
2019-03-12T14:39:31.110Z,29.36
2019-03-12T14:40:39.344Z,29.23
2019-03-12T14:41:47.284Z,29.09
2019-03-12T14:42:55.327Z,29.22
2019-03-12T14:44:03.497Z,28.91
2019-03-12T14:45:13.236Z,29.01
2019-03-12T14:46:21.481Z,28.72
2019-03-12T14:47:29.617Z,28.60
2019-03-12T14:48:46.146Z,28.69
2019-03-12T14:49:54.372Z,28.56
2019-03-12T14:51:02.521Z,29.33
2019-03-12T14:52:12.557Z,29.34
2019-03-12T14:53:22.064Z,29.25
2019-03-12T14:54:30.487Z,29.25
2019-03-12T14:55:38.496Z,29.42
2019-03-12T14:56:46.883Z,29.77
2019-03-12T14:57:54.976Z,29.98
2019-03-12T14:59:04.102Z,29.91
2019-03-12T15:00:21.703Z,29.93
2019-03-12T15:01:29.915Z,29.90
2019-03-12T15:02:37.876Z,29.48
2019-03-12T15:03:45.645Z,29.76
2019-03-12T15:04:55.005Z,29.57
2019-03-12T15:06:02.961Z,29.82
2019-03-12T15:07:11.215Z,30.05
2019-03-12T15:08:19.482Z,29.88